Time;durP1;ratioP1;P1;durP2;ratioP2;P2;SDS_P1;SDS_P2;PMS_P1;PMS_P2;Temp;Humidity;BMP_temperature;BMP_pressure;BME280_temperature;BME280_humidity;BME280_pressure;Samples;Min_cycle;Max_cycle;Signal;HPM_P1;HPM_P2
2021/04/30 00:02:09;;;;;;;37.08;21.20;;;;;;;3.61;91.56;101087.22;5101739;28;20036;-62
2021/04/30 00:04:34;;;;;;;34.95;22.50;;;;;;;3.61;91.91;101094.16;5104455;28;20019;-63
2021/04/30 00:06:59;;;;;;;34.17;20.90;;;;;;;3.63;91.75;101092.50;5101079;28;20028;-63
2021/04/30 00:09:25;;;;;;;33.65;21.33;;;;;;;3.60;91.32;101095.88;5103947;28;20080;-63
2021/04/30 00:11:50;;;;;;;34.00;21.58;;;;;;;3.61;91.62;101087.22;5102305;28;20020;-64
2021/04/30 00:14:17;;;;;;;34.17;22.00;;;;;;;3.63;91.57;101095.09;5102460;28;20021;-68
2021/04/30 00:16:42;;;;;;;35.75;21.70;;;;;;;3.65;91.85;101096.03;5107094;28;20110;-66
2021/04/30 00:19:08;;;;;;;35.22;21.88;;;;;;;3.63;91.73;101087.28;5105404;28;20103;-64
2021/04/30 00:21:34;;;;;;;35.63;22.30;;;;;;;3.63;92.17;101095.09;5113076;28;20374;-64
2021/04/30 00:23:59;;;;;;;32.85;21.42;;;;;;;3.64;91.72;101086.41;5113585;28;20020;-63
2021/04/30 00:26:25;;;;;;;37.22;22.77;;;;;;;3.62;92.84;101086.34;5109451;28;20040;-63
2021/04/30 00:28:51;;;;;;;36.22;22.70;;;;;;;3.61;92.07;101087.22;5106231;28;20020;-63
2021/04/30 00:31:18;;;;;;;36.95;23.77;;;;;;;3.61;93.39;101081.97;5106180;28;20109;-63
2021/04/30 00:33:43;;;;;;;32.95;22.55;;;;;;;3.61;93.04;101083.69;5106839;28;20027;-62
2021/04/30 00:36:09;;;;;;;36.55;22.52;;;;;;;3.60;93.33;101074.09;5104995;28;20035;-64
2021/04/30 00:38:34;;;;;;;36.65;23.65;;;;;;;3.68;91.75;101077.84;5108140;28;20121;-62
2021/04/30 00:40:59;;;;;;;35.42;23.70;;;;;;;3.63;92.95;101080.31;5104374;28;20386;-63
2021/04/30 00:43:25;;;;;;;39.00;24.35;;;;;;;3.62;92.92;101073.28;5107300;28;20174;-63
2021/04/30 00:45:52;;;;;;;35.17;24.30;;;;;;;3.60;93.31;101076.69;5105728;27;20067;-63
2021/04/30 00:48:18;;;;;;;36.92;23.98;;;;;;;3.58;93.93;101081.88;5106366;28;20028;-64
2021/04/30 00:50:44;;;;;;;38.30;24.92;;;;;;;3.57;94.61;101076.56;5106599;28;20019;-63
2021/04/30 00:53:09;;;;;;;37.92;24.63;;;;;;;3.56;93.77;101086.13;5104666;28;20161;-63
2021/04/30 00:55:34;;;;;;;38.47;24.15;;;;;;;3.55;93.15;101086.09;5108030;28;20032;-63
2021/04/30 00:58:02;;;;;;;38.03;25.40;;;;;;;3.49;94.14;101092.88;5104546;28;20356;-63
2021/04/30 01:00:32;;;;;;;38.30;25.88;;;;;;;3.47;94.00;101088.44;5107215;28;20027;-63
2021/04/30 01:02:58;;;;;;;38.20;24.95;;;;;;;3.47;93.65;101096.25;5104805;28;20020;-63
2021/04/30 01:05:24;;;;;;;39.17;26.33;;;;;;;3.47;93.56;101091.91;5106705;28;20074;-62
2021/04/30 01:07:50;;;;;;;41.20;26.20;;;;;;;3.46;94.08;101091.88;5106202;28;20427;-62
2021/04/30 01:10:20;;;;;;;40.50;27.30;;;;;;;3.44;95.46;101098.78;5107078;28;20123;-73
2021/04/30 01:12:46;;;;;;;40.05;27.27;;;;;;;3.46;94.53;101097.09;5106367;28;20031;-63
2021/04/30 01:15:14;;;;;;;40.30;26.65;;;;;;;3.46;95.40;101097.09;5104291;28;20109;-63
2021/04/30 01:17:40;;;;;;;38.25;27.92;;;;;;;3.44;95.13;101099.66;5106587;28;20039;-61
2021/04/30 01:20:07;;;;;;;39.90;27.00;;;;;;;3.46;95.86;101100.59;5104114;28;20071;-63
2021/04/30 01:22:36;;;;;;;40.78;27.52;;;;;;;3.47;96.01;101104.09;5099510;28;20103;-63
2021/04/30 01:25:03;;;;;;;38.80;28.77;;;;;;;3.46;96.29;101103.19;5099358;28;20052;-63
2021/04/30 01:27:29;;;;;;;39.70;27.90;;;;;;;3.47;96.09;101097.16;5104945;28;20470;-62
2021/04/30 01:29:54;;;;;;;44.72;29.38;;;;;;;3.47;96.58;101104.09;5104506;28;20063;-62
2021/04/30 01:32:20;;;;;;;41.05;28.52;;;;;;;3.50;96.46;101106.84;5105262;28;20432;-62
2021/04/30 01:34:45;;;;;;;43.75;29.02;;;;;;;3.56;96.73;101114.00;5105726;28;20028;-63
2021/04/30 01:37:11;;;;;;;43.15;28.08;;;;;;;3.56;96.01;101108.78;5104024;28;20520;-62
2021/04/30 01:39:37;;;;;;;42.50;28.05;;;;;;;3.56;96.70;101108.78;5107179;28;20016;-62
2021/04/30 01:42:05;;;;;;;40.78;28.85;;;;;;;3.57;96.17;101121.91;5103269;28;20047;-62
2021/04/30 01:44:31;;;;;;;44.42;30.55;;;;;;;3.57;95.83;101121.91;5106612;28;20442;-63
2021/04/30 01:46:58;;;;;;;40.75;28.42;;;;;;;3.59;96.09;101121.97;5104384;28;20110;-63
2021/04/30 01:49:24;;;;;;;42.00;28.98;;;;;;;3.60;95.37;101121.16;5105889;28;20051;-62
2021/04/30 01:51:50;;;;;;;40.38;29.67;;;;;;;3.59;96.15;101119.34;5117780;28;20081;-62
2021/04/30 01:54:15;;;;;;;42.47;29.98;;;;;;;3.61;95.83;101120.28;5108164;28;20520;-61
2021/04/30 01:56:40;;;;;;;43.58;29.67;;;;;;;3.60;96.35;101114.19;5105864;28;20377;-62
2021/04/30 01:59:06;;;;;;;42.40;29.55;;;;;;;3.60;96.74;101118.53;5102996;28;20020;-62
2021/04/30 02:01:31;;;;;;;43.35;30.27;;;;;;;3.62;96.53;101119.47;5106514;28;20077;-61
2021/04/30 02:04:00;;;;;;;43.20;30.63;;;;;;;3.61;97.26;101130.75;5103564;28;20032;-61
2021/04/30 02:06:25;;;;;;;41.28;29.67;;;;;;;3.63;97.41;101129.97;5105223;28;20036;-61
2021/04/30 02:08:51;;;;;;;45.55;30.52;;;;;;;3.66;97.66;101134.44;5104410;28;20042;-61
2021/04/30 02:11:17;;;;;;;42.42;29.60;;;;;;;3.65;96.79;101132.66;5104021;28;20062;-61
2021/04/30 02:13:42;;;;;;;43.90;31.33;;;;;;;3.66;96.97;101135.31;5105314;28;20107;-61
2021/04/30 02:16:07;;;;;;;49.67;31.92;;;;;;;3.70;98.03;101124.97;5102776;28;20055;-62
2021/04/30 02:18:33;;;;;;;42.28;30.83;;;;;;;3.74;97.71;101121.63;5106151;28;20026;-61
2021/04/30 02:20:58;;;;;;;45.22;30.98;;;;;;;3.75;97.58;101126.91;5102883;28;20072;-61
2021/04/30 02:23:24;;;;;;;45.92;30.88;;;;;;;3.76;96.35;101127.84;5104888;28;20020;-61
2021/04/30 02:25:49;;;;;;;45.97;32.20;;;;;;;3.79;97.47;101126.19;5104083;28;20028;-61
2021/04/30 02:28:15;;;;;;;45.35;31.25;;;;;;;3.80;96.46;101137.53;5103429;28;20066;-60
2021/04/30 02:30:42;;;;;;;43.45;30.52;;;;;;;3.83;96.50;101135.06;5105343;28;20060;-61
2021/04/30 02:33:09;;;;;;;45.20;31.73;;;;;;;3.84;95.86;101132.50;5102534;28;20028;-61
2021/04/30 02:35:42;;;;;;;46.97;30.45;;;;;;;3.86;96.63;101129.94;5106105;28;20072;-61
2021/04/30 02:38:10;;;;;;;46.10;31.88;;;;;;;3.89;97.75;101131.75;5098283;28;20089;-61
2021/04/30 02:40:37;;;;;;;45.58;30.48;;;;;;;3.91;96.87;101132.72;5105648;28;20042;-61
2021/04/30 02:43:09;;;;;;;42.70;30.67;;;;;;;3.92;96.52;101134.50;5098121;28;20031;-62
2021/04/30 02:45:35;;;;;;;46.42;32.15;;;;;;;3.91;97.63;101128.38;5098476;28;20030;-66
2021/04/30 02:48:01;;;;;;;46.63;32.47;;;;;;;3.92;98.76;101124.06;5105258;28;20024;-71
2021/04/30 02:50:30;;;;;;;44.25;30.45;;;;;;;3.96;99.16;101123.28;5102539;28;20023;-62
2021/04/30 02:52:57;;;;;;;42.42;30.65;;;;;;;3.97;98.08;101127.69;5104521;28;20547;-63
2021/04/30 02:55:24;;;;;;;49.38;33.40;;;;;;;3.93;98.71;101120.56;5101801;28;20058;-63
2021/04/30 02:57:54;;;;;;;48.13;34.42;;;;;;;3.90;100.00;101130.94;5103537;28;20073;-63
2021/04/30 03:00:22;;;;;;;47.10;33.92;;;;;;;3.90;100.00;101130.94;5103572;28;20146;-64
2021/04/30 03:02:48;;;;;;;48.78;35.80;;;;;;;3.81;100.00;101128.88;5103326;28;20479;-63
2021/04/30 03:05:14;;;;;;;53.45;37.92;;;;;;;3.74;100.00;101127.78;5104185;28;20045;-63
2021/04/30 03:07:39;;;;;;;51.28;38.50;;;;;;;3.70;100.00;101144.19;5102236;28;20020;-65
2021/04/30 03:10:06;;;;;;;54.85;38.55;;;;;;;3.68;100.00;101145.84;5105103;28;20053;-63
2021/04/30 03:12:32;;;;;;;52.92;39.67;;;;;;;3.67;100.00;101144.06;5101415;28;20027;-63
2021/04/30 03:14:57;;;;;;;56.03;39.10;;;;;;;3.64;100.00;101143.94;5104324;28;20038;-63
2021/04/30 03:17:23;;;;;;;56.28;41.00;;;;;;;3.62;100.00;101137.75;5102640;28;20036;-63
2021/04/30 03:19:48;;;;;;;57.22;41.60;;;;;;;3.62;100.00;101135.16;5102968;28;20031;-63
2021/04/30 03:22:14;;;;;;;55.80;42.90;;;;;;;3.64;100.00;101130.84;5104074;28;20089;-61
2021/04/30 03:24:39;;;;;;;59.83;43.47;;;;;;;3.64;100.00;101129.16;5101475;28;20085;-62
2021/04/30 03:27:05;;;;;;;63.13;44.95;;;;;;;3.66;100.00;101127.47;5104776;28;20027;-64
2021/04/30 03:29:30;;;;;;;67.35;45.30;;;;;;;3.67;100.00;101118.81;5101796;28;20047;-63
2021/04/30 03:31:55;;;;;;;59.40;42.72;;;;;;;3.68;100.00;101114.44;5103803;28;20067;-63
2021/04/30 03:34:21;;;;;;;63.67;44.88;;;;;;;3.72;100.00;101115.47;5102735;28;20028;-63
2021/04/30 03:36:46;;;;;;;59.03;44.92;;;;;;;3.73;100.00;101112.91;5102421;28;20035;-63
2021/04/30 03:39:12;;;;;;;62.25;43.92;;;;;;;3.78;100.00;101108.72;5104002;28;20031;-64
2021/04/30 03:41:37;;;;;;;60.60;43.80;;;;;;;3.79;100.00;101107.03;5101086;28;20477;-62
2021/04/30 03:44:03;;;;;;;59.28;42.33;;;;;;;3.85;100.00;101107.22;5104961;28;20071;-66
2021/04/30 03:46:28;;;;;;;58.70;42.85;;;;;;;3.81;100.00;101106.22;5102042;28;20089;-65
2021/04/30 03:48:54;;;;;;;57.25;43.53;;;;;;;3.81;100.00;101105.34;5104543;28;20031;-62
2021/04/30 03:51:19;;;;;;;60.30;44.17;;;;;;;3.78;100.00;101111.34;5107468;28;20031;-65
2021/04/30 03:53:45;;;;;;;58.10;41.95;;;;;;;3.76;100.00;101113.03;5106203;28;20056;-63
2021/04/30 03:56:11;;;;;;;57.80;42.40;;;;;;;3.74;100.00;101124.25;5108474;28;20053;-63
2021/04/30 03:58:37;;;;;;;60.47;43.70;;;;;;;3.74;100.00;101119.03;5105374;28;20049;-65
2021/04/30 04:01:02;;;;;;;63.15;44.40;;;;;;;3.73;100.00;101120.75;5108537;28;20110;-63
2021/04/30 04:03:28;;;;;;;59.00;44.40;;;;;;;3.71;100.00;101125.03;5106035;28;20031;-64
2021/04/30 04:05:53;;;;;;;60.95;43.45;;;;;;;3.74;100.00;101129.47;5105980;28;20059;-64
2021/04/30 04:08:18;;;;;;;58.17;42.67;;;;;;;3.76;100.00;101133.94;5106891;28;20076;-63
2021/04/30 04:10:44;;;;;;;63.88;44.20;;;;;;;3.78;100.00;101144.47;5106028;28;20468;-65
2021/04/30 04:13:16;;;;;;;58.53;43.33;;;;;;;3.78;100.00;101141.84;5108248;28;20521;-64
2021/04/30 04:15:45;;;;;;;63.25;44.42;;;;;;;3.77;100.00;101146.19;5105018;28;20032;-63
2021/04/30 04:18:11;;;;;;;60.78;44.10;;;;;;;3.75;100.00;101136.50;5108398;28;20111;-65
2021/04/30 04:20:38;;;;;;;60.80;44.75;;;;;;;3.76;100.00;101133.06;5104835;28;20071;-63
2021/04/30 04:23:03;;;;;;;62.75;44.67;;;;;;;3.74;100.00;101119.94;5100804;28;20020;-63
2021/04/30 04:25:29;;;;;;;61.65;43.72;;;;;;;3.73;100.00;101123.38;5107774;28;20036;-62
2021/04/30 04:27:55;;;;;;;57.05;43.45;;;;;;;3.74;100.00;101126.88;5105811;28;20094;-64
2021/04/30 04:30:21;;;;;;;56.70;43.35;;;;;;;3.73;100.00;101130.31;5106432;28;20020;-64
2021/04/30 04:32:47;;;;;;;61.28;44.72;;;;;;;3.74;100.00;101133.00;5106912;28;20107;-63
2021/04/30 04:35:13;;;;;;;65.50;45.83;;;;;;;3.75;100.00;101124.31;5105399;28;20118;-63
2021/04/30 04:37:38;;;;;;;61.80;43.70;;;;;;;3.79;100.00;101127.94;5108077;28;20028;-62
2021/04/30 04:40:04;;;;;;;61.80;44.80;;;;;;;3.76;100.00;101128.72;5104933;28;20067;-63
2021/04/30 04:42:29;;;;;;;62.55;44.45;;;;;;;3.77;100.00;101121.75;5110015;28;20024;-68
2021/04/30 04:44:55;;;;;;;62.47;44.45;;;;;;;3.77;100.00;101129.59;5105589;27;20020;-63
2021/04/30 04:47:20;;;;;;;61.03;43.97;;;;;;;3.80;100.00;101130.59;5106081;28;20406;-62
2021/04/30 04:49:45;;;;;;;64.00;45.50;;;;;;;3.78;100.00;101134.88;5106700;28;20024;-63
2021/04/30 04:52:12;;;;;;;65.68;47.33;;;;;;;3.81;100.00;101132.38;5104798;28;20394;-62
2021/04/30 04:54:37;;;;;;;63.85;47.40;;;;;;;3.81;100.00;101134.97;5107564;28;20027;-63
2021/04/30 04:57:02;;;;;;;60.58;45.50;;;;;;;3.81;100.00;101149.78;5104185;28;20024;-63
2021/04/30 04:59:28;;;;;;;62.30;45.28;;;;;;;3.80;100.00;101145.38;5107192;28;20543;-63
2021/04/30 05:01:53;;;;;;;62.35;46.80;;;;;;;3.78;100.00;101147.94;5104824;28;20019;-63
2021/04/30 05:04:18;;;;;;;64.25;48.00;;;;;;;3.80;100.00;101148.91;5105609;28;20454;-63
2021/04/30 05:06:44;;;;;;;61.03;46.05;;;;;;;3.82;100.00;101142.00;5106927;28;20024;-63
2021/04/30 05:09:10;;;;;;;65.18;47.20;;;;;;;3.84;100.00;101150.81;5103922;28;20024;-63
2021/04/30 05:11:36;;;;;;;67.47;47.05;;;;;;;3.86;100.00;101150.88;5107527;28;20080;-63
2021/04/30 05:14:01;;;;;;;65.78;47.20;;;;;;;3.90;100.00;101144.88;5104169;28;20024;-63
2021/04/30 05:16:26;;;;;;;61.80;46.03;;;;;;;3.94;100.00;101146.78;5105876;28;20048;-64
2021/04/30 05:18:52;;;;;;;63.45;46.22;;;;;;;3.97;100.00;101148.63;5105260;27;20046;-64
2021/04/30 05:21:18;;;;;;;64.45;46.42;;;;;;;4.04;100.00;101152.38;5105077;28;20028;-64
2021/04/30 05:23:44;;;;;;;64.40;46.80;;;;;;;4.06;100.00;101154.19;5106715;28;20020;-64
2021/04/30 05:26:09;;;;;;;64.80;47.45;;;;;;;4.10;100.00;101153.47;5104049;28;20070;-63
2021/04/30 05:28:36;;;;;;;63.03;47.38;;;;;;;4.13;100.00;101156.19;5111943;28;20050;-61
2021/04/30 05:31:01;;;;;;;65.65;47.67;;;;;;;4.14;100.00;101165.81;5116902;28;20042;-61
2021/04/30 05:33:27;;;;;;;63.88;48.58;;;;;;;4.17;100.00;101158.06;5106046;28;20521;-61
2021/04/30 05:35:52;;;;;;;64.20;49.17;;;;;;;4.23;100.00;101172.22;5105194;28;20035;-62
2021/04/30 05:38:18;;;;;;;62.10;47.25;;;;;;;4.25;100.00;101174.06;5104485;28;20012;-61
2021/04/30 05:40:43;;;;;;;64.85;46.47;;;;;;;4.30;100.00;101174.22;5106245;28;20068;-61
2021/04/30 05:43:09;;;;;;;63.40;45.95;;;;;;;4.31;100.00;101173.38;5103104;28;20024;-62
2021/04/30 05:45:34;;;;;;;66.13;46.58;;;;;;;4.33;100.00;101179.56;5096596;28;20100;-62
2021/04/30 05:48:00;;;;;;;62.97;45.70;;;;;;;4.36;100.00;101184.91;5097595;28;20548;-63
2021/04/30 05:50:25;;;;;;;72.45;48.53;;;;;;;4.40;100.00;101178.94;5100787;28;20058;-62
2021/04/30 05:52:50;;;;;;;62.20;47.50;;;;;;;4.40;100.00;101188.50;5100194;28;20031;-62
2021/04/30 05:55:16;;;;;;;64.07;46.53;;;;;;;4.45;100.00;101185.22;5101861;28;20386;-63
2021/04/30 05:57:41;;;;;;;64.57;46.95;;;;;;;4.46;100.00;101178.28;5099250;28;20020;-62
2021/04/30 06:00:09;;;;;;;64.25;47.20;;;;;;;4.49;100.00;101183.63;5100958;28;20034;-62
2021/04/30 06:02:35;;;;;;;74.78;48.47;;;;;;;4.51;100.00;101184.53;5099109;28;20024;-62
2021/04/30 06:05:01;;;;;;;69.25;50.28;;;;;;;4.53;100.00;101183.75;5098694;28;20032;-62
2021/04/30 06:07:27;;;;;;;67.68;48.92;;;;;;;4.54;100.00;101180.31;5102733;28;20032;-62
2021/04/30 06:09:52;;;;;;;63.22;47.35;;;;;;;4.56;100.00;101187.31;5098073;28;20050;-62
2021/04/30 06:12:17;;;;;;;63.97;47.58;;;;;;;4.57;100.00;101194.34;5097523;28;20103;-62
2021/04/30 06:14:43;;;;;;;61.95;45.25;;;;;;;4.53;100.00;101188.13;5098797;28;20024;-62
2021/04/30 06:17:08;;;;;;;68.32;48.63;;;;;;;4.57;100.00;101195.22;5099000;28;20055;-62
2021/04/30 06:19:34;;;;;;;62.60;46.85;;;;;;;4.55;100.00;101191.66;5097608;28;20024;-62
2021/04/30 06:21:59;;;;;;;61.60;46.70;;;;;;;4.56;100.00;101195.16;5100079;28;20035;-62
2021/04/30 06:24:25;;;;;;;66.93;48.40;;;;;;;4.59;100.00;101187.41;5098137;28;20031;-62
2021/04/30 06:26:50;;;;;;;67.13;48.88;;;;;;;4.61;100.00;101180.53;5097047;28;20137;-62
2021/04/30 06:29:16;;;;;;;69.03;49.88;;;;;;;4.67;100.00;101186.84;5101502;28;20028;-62
2021/04/30 06:31:41;;;;;;;63.55;46.80;;;;;;;4.68;100.00;101187.75;5097102;28;20119;-62
2021/04/30 06:34:07;;;;;;;59.70;46.47;;;;;;;4.69;100.00;101189.53;5099817;28;20038;-62
2021/04/30 06:36:34;;;;;;;68.93;48.75;;;;;;;4.72;100.00;101190.53;5099996;28;20498;-62
2021/04/30 06:38:59;;;;;;;62.28;47.53;;;;;;;4.75;100.00;101184.50;5098825;28;20488;-62
2021/04/30 06:41:25;;;;;;;64.20;46.92;;;;;;;4.75;100.00;101188.81;5098933;28;20111;-63
2021/04/30 06:43:51;;;;;;;73.18;49.33;;;;;;;4.79;100.00;101201.19;5101803;28;20023;-62
2021/04/30 06:46:16;;;;;;;67.30;49.03;;;;;;;4.83;100.00;101203.09;5098525;28;20050;-62
2021/04/30 06:48:41;;;;;;;68.50;48.00;;;;;;;4.83;100.00;101192.59;5097297;28;20028;-63
2021/04/30 06:51:07;;;;;;;68.43;46.70;;;;;;;4.84;100.00;101199.63;5099962;28;20044;-61
2021/04/30 06:53:32;;;;;;;69.43;49.78;;;;;;;4.87;100.00;101208.47;5094088;28;20027;-61
2021/04/30 06:55:58;;;;;;;67.28;46.95;;;;;;;4.84;100.00;101208.38;5096914;28;20032;-61
2021/04/30 06:58:23;;;;;;;62.83;47.03;;;;;;;4.80;100.00;101203.88;5099056;28;20032;-61
2021/04/30 07:00:48;;;;;;;61.88;46.90;;;;;;;4.86;100.00;101203.19;5097018;28;20429;-61
2021/04/30 07:03:14;;;;;;;67.35;49.67;;;;;;;4.91;100.00;101216.44;5099194;28;20189;-61
2021/04/30 07:05:39;;;;;;;64.47;47.25;;;;;;;4.92;100.00;101210.34;5099286;28;20028;-61
2021/04/30 07:08:05;;;;;;;67.00;48.05;;;;;;;4.95;100.00;101205.22;5097188;28;20462;-60
2021/04/30 07:10:32;;;;;;;61.75;46.38;;;;;;;4.91;100.00;101205.94;5099580;28;20553;-61
2021/04/30 07:12:58;;;;;;;66.22;47.28;;;;;;;4.96;100.00;101212.25;5095187;28;20128;-60
2021/04/30 07:15:23;;;;;;;63.67;47.88;;;;;;;4.97;100.00;101212.28;5099270;28;20107;-61
2021/04/30 07:17:48;;;;;;;63.40;46.38;;;;;;;5.03;100.00;101216.84;5097532;28;20093;-60
2021/04/30 07:20:14;;;;;;;61.35;46.45;;;;;;;5.13;100.00;101218.06;5096880;28;20430;-60
2021/04/30 07:22:39;;;;;;;62.72;47.22;;;;;;;5.31;100.00;101225.59;5099915;28;20076;-61
2021/04/30 07:25:06;;;;;;;60.53;45.63;;;;;;;5.35;100.00;101220.50;5096454;28;20493;-60
2021/04/30 07:27:32;;;;;;;59.28;44.13;;;;;;;5.38;100.00;101230.22;5101125;28;20389;-61
2021/04/30 07:29:57;;;;;;;63.08;45.90;;;;;;;5.43;100.00;101223.34;5095866;28;20039;-62
2021/04/30 07:32:22;;;;;;;56.92;43.60;;;;;;;5.40;100.00;101225.88;5098913;28;20020;-62
2021/04/30 07:34:48;;;;;;;57.72;44.00;;;;;;;5.49;100.00;101227.91;5095958;28;20065;-61
2021/04/30 07:37:14;;;;;;;60.30;44.53;;;;;;;5.60;100.00;101221.28;5100457;28;20068;-62
2021/04/30 07:39:42;;;;;;;60.55;45.90;;;;;;;5.57;100.00;101222.06;5099397;28;20111;-61
2021/04/30 07:42:08;;;;;;;60.90;46.80;;;;;;;5.58;100.00;101215.97;5099863;28;20050;-62
2021/04/30 07:44:33;;;;;;;58.35;42.97;;;;;;;5.63;100.00;101220.47;5091846;28;20027;-61
2021/04/30 07:46:59;;;;;;;58.92;42.72;;;;;;;5.57;100.00;101221.19;5098858;28;20478;-61
2021/04/30 07:49:25;;;;;;;58.47;44.15;;;;;;;5.66;100.00;101217.94;5100220;28;20109;-61
2021/04/30 07:51:50;;;;;;;59.20;44.88;;;;;;;5.74;100.00;101219.97;5098984;28;20020;-61
2021/04/30 07:54:17;;;;;;;57.35;42.08;;;;;;;5.75;100.00;101216.50;5099465;28;20099;-61
2021/04/30 07:56:43;;;;;;;58.95;44.95;;;;;;;5.92;100.00;101216.97;5099801;28;20019;-61
2021/04/30 07:59:09;;;;;;;54.47;43.30;;;;;;;6.01;100.00;101218.13;5098397;28;20027;-62
2021/04/30 08:01:35;;;;;;;58.13;43.85;;;;;;;6.07;100.00;101213.06;5105286;28;20028;-62
2021/04/30 08:04:00;;;;;;;58.03;43.83;;;;;;;6.20;100.00;101225.69;5098925;28;20107;-62
2021/04/30 08:06:26;;;;;;;58.78;44.00;;;;;;;6.36;100.00;101215.63;5103523;28;20028;-62
2021/04/30 08:08:51;;;;;;;54.97;41.25;;;;;;;6.51;100.00;101221.28;5104447;28;20110;-62
2021/04/30 08:11:16;;;;;;;54.47;40.83;;;;;;;6.69;100.00;101217.38;5100828;28;20466;-64
2021/04/30 08:13:42;;;;;;;52.60;37.35;;;;;;;6.90;98.32;101214.41;5101223;28;20024;-65
2021/04/30 08:16:09;;;;;;;53.65;38.58;;;;;;;7.20;95.04;101210.75;5106838;28;20089;-65
2021/04/30 08:18:34;;;;;;;50.80;39.42;;;;;;;7.39;93.81;101212.09;5114382;28;20036;-64
2021/04/30 08:21:00;;;;;;;46.08;34.08;;;;;;;7.63;87.88;101210.00;5099426;28;20027;-66
2021/04/30 08:23:25;;;;;;;43.42;32.85;;;;;;;8.19;85.16;101212.03;5097502;28;20024;-64
2021/04/30 08:25:50;;;;;;;45.42;33.45;;;;;;;8.74;84.39;101214.00;5102828;28;20024;-64
2021/04/30 08:28:16;;;;;;;44.47;31.75;;;;;;;8.74;79.04;101208.72;5100885;28;20061;-64
2021/04/30 08:30:41;;;;;;;44.40;29.92;;;;;;;8.51;79.53;101221.47;5103126;28;20388;-63
2021/04/30 08:33:06;;;;;;;46.08;32.72;;;;;;;8.48;85.34;101224.94;5094871;28;20032;-63
2021/04/30 08:35:32;;;;;;;42.35;28.73;;;;;;;8.64;80.89;101225.22;5097262;28;20024;-64
2021/04/30 08:37:58;;;;;;;42.75;27.58;;;;;;;8.53;78.79;101231.19;5105551;27;20419;-64
2021/04/30 08:40:24;;;;;;;43.75;29.73;;;;;;;8.44;81.84;101231.00;5099943;28;20024;-64
2021/04/30 08:42:52;;;;;;;39.28;27.85;;;;;;;8.50;79.90;101232.88;5102162;28;20024;-64
2021/04/30 08:45:18;;;;;;;40.58;28.67;;;;;;;8.65;80.38;101234.91;5101208;28;20024;-62
2021/04/30 08:47:44;;;;;;;40.67;27.63;;;;;;;8.80;77.85;101231.66;5093821;28;20506;-63
2021/04/30 08:50:11;;;;;;;42.58;28.92;;;;;;;9.00;77.66;101225.00;5096030;28;20039;-63
2021/04/30 08:52:37;;;;;;;44.42;28.33;;;;;;;9.11;78.70;101232.19;5100566;28;20023;-63
2021/04/30 08:55:17;;;;;;;41.60;26.65;;;;;;;8.88;75.82;101235.31;5101569;28;20470;-63
2021/04/30 08:57:43;;;;;;;44.63;28.92;;;;;;;8.95;79.15;101242.47;5102172;28;20032;-63
2021/04/30 09:00:09;;;;;;;40.95;27.20;;;;;;;9.14;77.50;101245.44;5090344;28;20020;-61
2021/04/30 09:02:38;;;;;;;40.88;26.88;;;;;;;9.20;76.13;101248.16;5097225;28;20024;-61
2021/04/30 09:05:07;;;;;;;41.67;26.95;;;;;;;9.47;75.53;101249.47;5100857;28;20501;-61
2021/04/30 09:07:39;;;;;;;39.72;26.63;;;;;;;9.80;74.68;101246.44;5099974;27;20381;-61
2021/04/30 09:10:09;;;;;;;41.40;28.33;;;;;;;9.94;72.58;101249.25;5102415;28;20028;-63
2021/04/30 09:12:35;;;;;;;39.72;27.05;;;;;;;9.88;74.69;101255.34;5103607;28;20020;-63
2021/04/30 09:15:01;;;;;;;37.80;25.75;;;;;;;9.81;74.58;101258.75;5100024;28;20036;-63
2021/04/30 09:17:27;;;;;;;39.63;26.42;;;;;;;9.88;73.83;101257.09;5100024;28;20112;-63
2021/04/30 09:19:56;;;;;;;38.60;26.10;;;;;;;9.75;74.29;101256.03;5099829;28;20031;-63
2021/04/30 09:22:29;;;;;;;39.17;26.10;;;;;;;9.82;72.94;101252.63;5098669;28;20032;-62
2021/04/30 09:25:09;;;;;;;39.95;27.90;;;;;;;9.82;72.92;101252.63;5099531;28;20373;-62
2021/04/30 09:27:40;;;;;;;43.45;27.92;;;;;;;9.93;72.57;101252.75;5102667;28;20080;-62
2021/04/30 09:30:17;;;;;;;41.85;28.25;;;;;;;10.25;70.09;101252.28;5094991;28;20478;-62
2021/04/30 09:33:01;;;;;;;39.60;27.33;;;;;;;10.57;68.79;101258.00;5103154;28;20083;-62
2021/04/30 09:35:27;;;;;;;40.97;27.88;;;;;;;10.96;68.62;101256.59;5098792;28;20097;-62
2021/04/30 09:37:53;;;;;;;39.65;27.30;;;;;;;11.07;67.88;101258.50;5103428;28;20019;-63
2021/04/30 09:40:25;;;;;;;40.80;27.88;;;;;;;11.34;68.37;101258.72;5100104;28;20035;-63
2021/04/30 09:43:01;;;;;;;39.63;29.00;;;;;;;11.37;63.31;101260.47;5099470;28;20352;-63
2021/04/30 09:45:26;;;;;;;41.65;29.10;;;;;;;11.36;64.26;101261.38;5102221;28;20093;-63
2021/04/30 09:47:52;;;;;;;39.92;27.98;;;;;;;11.31;64.00;101260.44;5102821;28;20028;-62
2021/04/30 09:50:24;;;;;;;43.58;29.95;;;;;;;11.18;65.65;101253.28;5100172;28;20031;-63
2021/04/30 09:53:03;;;;;;;;;;;;;;;11.24;65.70;101255.97;5104933;28;20028;-62
2021/04/30 09:55:41;;;;;;;41.63;28.40;;;;;;;11.18;65.16;101266.50;5104108;28;19912;-63
2021/04/30 09:58:17;;;;;;;42.78;29.25;;;;;;;10.99;64.12;101255.75;5099244;28;20021;-63
2021/04/30 10:00:45;;;;;;;43.28;30.77;;;;;;;10.95;63.64;101259.22;5106084;28;20045;-64
2021/04/30 10:03:18;;;;;;;43.60;31.50;;;;;;;10.90;63.37;101251.25;5098302;28;20028;-63
2021/04/30 10:06:06;;;;;;;41.00;29.38;;;;;;;10.99;64.29;101250.47;5101617;28;20073;-63
2021/04/30 10:08:34;;;;;;;45.08;29.65;;;;;;;10.76;63.57;101247.59;5100797;28;20031;-63
2021/04/30 10:11:00;;;;;;;40.00;28.60;;;;;;;10.51;62.51;101243.81;5099568;28;20026;-63
2021/04/30 10:13:25;;;;;;;41.13;28.65;;;;;;;10.63;64.16;101241.31;5100370;28;20381;-63
2021/04/30 10:15:51;;;;;;;43.45;28.40;;;;;;;11.00;64.83;101239.03;5098502;28;20542;-64
2021/04/30 10:18:18;;;;;;;37.83;25.25;;;;;;;12.10;60.37;101234.47;5098856;28;20101;-65
2021/04/30 10:20:45;;;;;;;36.83;23.55;;;;;;;13.43;54.68;101238.25;5091588;28;20474;-63
2021/04/30 10:23:19;;;;;;;42.85;24.65;;;;;;;14.89;51.41;101239.44;5096451;28;20028;-64
2021/04/30 10:25:49;;;;;;;37.35;24.05;;;;;;;14.42;51.62;101230.84;5097756;28;20031;-64
2021/04/30 10:28:21;;;;;;;37.03;24.70;;;;;;;13.73;52.46;101228.44;5099320;28;20046;-62
2021/04/30 10:30:49;;;;;;;38.80;24.73;;;;;;;14.18;53.22;101222.97;5098325;28;20016;-61
2021/04/30 10:33:23;;;;;;;37.60;23.17;;;;;;;15.81;49.12;101220.88;5097271;28;20062;-61
2021/04/30 10:35:51;;;;;;;35.22;21.83;;;;;;;17.92;45.57;101222.06;5094515;28;20584;-61
2021/04/30 10:38:20;;;;;;;36.58;21.40;;;;;;;18.13;40.92;101218.09;5098763;28;20019;-62
2021/04/30 10:41:03;;;;;;;35.17;21.85;;;;;;;17.10;46.13;101215.53;5093919;28;20032;-61
2021/04/30 10:43:30;;;;;;;36.40;21.30;;;;;;;16.71;45.21;101228.56;5098293;28;20024;-61
2021/04/30 10:46:05;;;;;;;33.95;21.50;;;;;;;16.38;47.16;101223.72;5098367;28;20023;-61
2021/04/30 10:48:33;;;;;;;33.25;20.83;;;;;;;15.55;46.45;101232.63;5098864;28;20024;-62
2021/04/30 10:51:15;;;;;;;39.05;22.90;;;;;;;14.95;50.55;101225.19;5097012;28;20037;-63
2021/04/30 10:53:43;;;;;;;36.90;22.50;;;;;;;14.53;49.44;101221.91;5097474;28;20038;-63
2021/04/30 10:56:31;;;;;;;35.92;21.42;;;;;;;14.66;50.13;101223.63;5098430;28;20085;-62
2021/04/30 10:58:57;;;;;;;36.35;21.35;;;;;;;14.78;49.49;101220.91;5098973;28;20123;-62
2021/04/30 11:01:28;;;;;;;38.28;22.77;;;;;;;15.34;48.20;101220.44;5098036;28;20102;-64
2021/04/30 11:04:09;;;;;;;34.80;22.25;;;;;;;15.29;47.54;101217.81;5097475;28;20023;-62
2021/04/30 11:06:36;;;;;;;36.45;21.50;;;;;;;14.10;49.02;101223.00;5096567;28;20040;-64
2021/04/30 11:09:13;;;;;;;35.28;21.42;;;;;;;13.18;51.44;101222.31;5099148;28;20027;-65
2021/04/30 11:11:41;;;;;;;35.95;22.38;;;;;;;12.97;52.81;101219.66;5101758;28;20478;-62